Sebastian, FL (32958)

1:58 PM EDT on September 04, 2015 (GMT -0400)
highlands | | Change Station
CLOSE
Current Station
Personal Weather Station
Location: Sebastian, Fl
Elevation: 46 ft
Nearby Weather Stations

Elev 46 ft 27.80 °N, 80.47 °W | Updated 7 minutes ago

Partly Cloudy
Partly Cloudy
82.2 °F
Feels Like 92 °F
N
0.0
Wind Variable Wind from NNW
Gusts 1.0 mph

Today
High -- | Low -- °F
--% Chance of Precip.
Yesterday
High -- | Low -- °F
Precip. -- in
7:01 AM 7:39 PM
Waning Gibbous, 57% visible
Pressure 29.97 in
Visibility 10.0 miles
Clouds Mostly Cloudy 3900 ft
Overcast 5000 ft
Heat Index 92 °F
Dew Point 78 °F
Humidity 88%
Rainfall 0.28 in
Snow Depth Not available.
UV 4 out of 12
Pollen 6.90 out of 12
Air Quality Not available.
Flu Activity Not available.
METAR KVRB 041753Z 06008KT 10SM BKN039 OVC050 31/23 A2997 RMK AO2 SLP147 T03060233 10333 20261 58008
Pressure 29.97 in
Visibility 10.0 miles
Clouds Mostly Cloudy 3900 ft
Overcast 5000 ft
Heat Index 92 °F
Dew Point 78 °F
Humidity 88%
Rainfall 0.28 in
Snow Depth Not available.
UV 4 out of 12
Pollen 6.90 out of 12
Air Quality Not available.
Flu Activity Not available.
METAR KVRB 041753Z 06008KT 10SM BKN039 OVC050 31/23 A2997 RMK AO2 SLP147 T03060233 10333 20261 58008
Nowcast | as of 11:33 am EDT on September 4, 2015

Area of light rain will continue to weaken as it moves eastward into Lake County through early this afternoon. Additional light showers and sprinkles will be possible with mid to high level cloud deck north of Orlando. A moist airmass across the region will lead to increasing showers and storms over the area into the afternoon with the best chance for initial development along the coast from Cape Canaveral southward as the East Coast sea breeze forms. Any storms will move east to southeast around 10 to 15 mph and will produce dangerous cloud to ground lightning and gusty winds. Additional details...including graphics are available online at: http://www.Srh.NOAA.Gov/mlb/blog.Php

×

10-Day Weather Forecast

×

Almanac

Astronomy

Sep. 04, 2015 Rise Set
Actual Time
Civil Twilight
Nautical Twilight
Astronomical Twilight
Moon
Length of Visible Light
Length of Day
Tomorrow will be .
, % of the Moon is Illuminated

Today's Extremes

State Highs State Lows

Community

WunderPhotos

Upload Photos

1,852,250 photos uploaded!

WunderBlogs® & News

Nearby

Air Quality

  Air Quality AQ Index Pollutant
Not available.

Snow Depth

Station Depth Elevation

Earthquake Activity

City Distance Mag. Time & Date
Minimum magnitude displayed is 2.5.

Coastal Water Temperatures

Place Temperature

Stations

Nearby Weather Stations

Station Location Temp. Windchill Dew Point Humidity Wind Precip. Elev Updated Type